Time;durP1;ratioP1;P1;durP2;ratioP2;P2;SDS_P1;SDS_P2;PMS_P1;PMS_P2;Temp;Humidity;BMP_temperature;BMP_pressure;BME280_temperature;BME280_humidity;BME280_pressure;Samples;Min_cycle;Max_cycle;Signal;HPM_P1;HPM_P2
2024/01/05 00:02:05;;;;;;;19.95;5.38;;;;;;;6.19;100.00;99758.19;5080046;28;20045;-72
2024/01/05 00:04:31;;;;;;;17.90;4.90;;;;;;;6.22;100.00;99761.28;5048097;28;20036;-72
2024/01/05 00:06:56;;;;;;;20.45;6.40;;;;;;;6.20;100.00;99749.53;5085564;28;20031;-73
2024/01/05 00:09:22;;;;;;;19.20;4.35;;;;;;;6.24;100.00;99741.34;5080264;28;20028;-72
2024/01/05 00:11:48;;;;;;;22.50;5.40;;;;;;;6.26;100.00;99741.19;5085457;28;20057;-73
2024/01/05 00:14:13;;;;;;;20.13;6.28;;;;;;;6.27;100.00;99736.84;5076772;28;20032;-72
2024/01/05 00:16:38;;;;;;;24.40;5.28;;;;;;;6.27;100.00;99729.09;5064091;28;20048;-72
2024/01/05 00:19:04;;;;;;;25.27;6.65;;;;;;;6.29;100.00;99728.00;5069232;28;20040;-72
2024/01/05 00:21:29;;;;;;;15.68;4.70;;;;;;;6.30;100.00;99731.38;5081430;28;20073;-72
2024/01/05 00:23:56;;;;;;;18.60;5.25;;;;;;;6.35;100.00;99726.59;5084325;28;20055;-72
2024/01/05 00:26:22;;;;;;;23.08;4.65;;;;;;;6.24;100.00;99731.03;5081089;28;21432;-72
2024/01/05 00:28:48;;;;;;;22.80;4.45;;;;;;;6.28;100.00;99726.38;5062476;28;20035;-71
2024/01/05 00:31:15;;;;;;;29.88;5.68;;;;;;;6.19;100.00;99722.16;5061835;28;20028;-72
2024/01/05 00:33:42;;;;;;;19.08;4.53;;;;;;;6.12;100.00;99721.97;5066955;28;20438;-72
2024/01/05 00:36:09;;;;;;;21.98;5.13;;;;;;;6.13;100.00;99717.63;5086699;28;20032;-73
2024/01/05 00:38:35;;;;;;;21.95;5.40;;;;;;;6.12;100.00;99713.44;5063536;28;20040;-72
2024/01/05 00:41:04;;;;;;;27.90;5.32;;;;;;;6.17;100.00;99703.50;5064243;28;20966;-72
2024/01/05 00:43:30;;;;;;;20.55;5.25;;;;;;;6.12;100.00;99695.41;5060098;28;20060;-72
2024/01/05 00:45:55;;;;;;;25.45;5.35;;;;;;;6.06;100.00;99701.19;5086282;28;20027;-73
2024/01/05 00:48:21;;;;;;;27.38;4.75;;;;;;;6.04;100.00;99696.19;5065324;28;20495;-73
2024/01/05 00:50:47;;;;;;;22.10;4.93;;;;;;;6.12;100.00;99692.84;5080761;28;20036;-72
2024/01/05 00:53:13;;;;;;;18.92;4.97;;;;;;;5.98;100.00;99689.88;5062615;28;20059;-72
2024/01/05 00:55:38;;;;;;;17.38;4.68;;;;;;;5.96;100.00;99693.56;5059042;28;20044;-72
2024/01/05 00:58:04;;;;;;;20.60;5.15;;;;;;;5.90;100.00;99689.00;5050634;28;20036;-71
2024/01/05 01:00:30;;;;;;;31.13;4.68;;;;;;;5.97;100.00;99685.72;5064183;28;20028;-72
2024/01/05 01:02:55;;;;;;;28.75;4.93;;;;;;;5.97;100.00;99690.84;5087999;28;20398;-72
2024/01/05 01:05:21;;;;;;;25.42;4.95;;;;;;;5.90;100.00;99692.38;5051204;28;20058;-71
2024/01/05 01:07:47;;;;;;;23.98;6.13;;;;;;;5.90;100.00;99687.25;5077669;28;20516;-72
2024/01/05 01:10:13;;;;;;;24.15;5.07;;;;;;;5.92;100.00;99684.53;5081822;28;20028;-72
2024/01/05 01:12:38;;;;;;;29.05;4.97;;;;;;;5.87;100.00;99687.53;5058443;28;20588;-72
2024/01/05 01:15:04;;;;;;;22.52;4.72;;;;;;;5.86;100.00;99683.38;5049237;28;20036;-72
2024/01/05 01:17:30;;;;;;;28.85;5.00;;;;;;;5.88;100.00;99681.44;5055180;28;20154;-73
2024/01/05 01:19:56;;;;;;;26.10;5.00;;;;;;;5.87;100.00;99671.28;5053926;28;20098;-72
2024/01/05 01:22:21;;;;;;;23.95;5.40;;;;;;;5.79;100.00;99672.84;5054249;28;20020;-72
2024/01/05 01:24:47;;;;;;;29.58;5.10;;;;;;;5.69;100.00;99658.47;5057905;28;20395;-72
2024/01/05 01:27:13;;;;;;;31.25;5.70;;;;;;;5.74;100.00;99663.97;5061131;28;20671;-72
2024/01/05 01:29:39;;;;;;;21.10;4.20;;;;;;;5.66;100.00;99665.53;5065675;28;20748;-72
2024/01/05 01:32:05;;;;;;;23.85;5.22;;;;;;;5.71;100.00;99654.00;5063175;28;20032;-72
2024/01/05 01:34:30;;;;;;;23.45;5.18;;;;;;;5.58;100.00;99664.72;5078016;28;20032;-72
2024/01/05 01:36:56;;;;;;;34.17;5.57;;;;;;;5.62;100.00;99666.81;5075923;28;20032;-71
2024/01/05 01:39:21;;;;;;;18.98;4.50;;;;;;;5.61;100.00;99664.38;5070479;28;20036;-71
2024/01/05 01:41:46;;;;;;;20.98;4.57;;;;;;;5.68;100.00;99660.25;5060821;28;20024;-71
2024/01/05 01:44:12;;;;;;;27.63;6.57;;;;;;;5.66;100.00;99646.75;5058193;28;20032;-72
2024/01/05 01:46:38;;;;;;;25.17;4.75;;;;;;;5.78;100.00;99639.56;5043398;28;20036;-72
2024/01/05 01:49:05;;;;;;;23.10;5.43;;;;;;;5.68;100.00;99637.09;5075510;28;20037;-72
2024/01/05 01:51:31;;;;;;;23.27;5.97;;;;;;;5.66;100.00;99639.03;5076865;28;20402;-71
2024/01/05 01:54:05;;;;;;;20.25;3.92;;;;;;;5.70;100.00;99636.97;5076435;28;20028;-71
2024/01/05 01:56:32;;;;;;;17.83;5.30;;;;;;;5.57;100.00;99635.59;5060660;28;20465;-72
2024/01/05 01:58:57;;;;;;;19.13;4.20;;;;;;;5.61;100.00;99636.94;5047064;28;20051;-72
2024/01/05 02:01:23;;;;;;;17.50;4.30;;;;;;;5.61;100.00;99628.38;5063328;28;20080;-72
2024/01/05 02:03:49;;;;;;;19.50;3.92;;;;;;;5.67;100.00;99625.22;5060613;28;20079;-72
2024/01/05 02:06:14;;;;;;;25.42;5.18;;;;;;;5.55;100.00;99626.41;5082455;28;20081;-72
2024/01/05 02:08:40;;;;;;;21.65;4.00;;;;;;;5.59;100.00;99617.44;5077016;28;20044;-72
2024/01/05 02:11:06;;;;;;;15.27;3.85;;;;;;;5.47;100.00;99598.91;5061700;28;20042;-72
2024/01/05 02:13:32;;;;;;;25.35;4.00;;;;;;;5.42;100.00;99596.75;5062980;28;20037;-72
2024/01/05 02:15:58;;;;;;;18.65;3.75;;;;;;;5.43;100.00;99584.75;5060979;28;20036;-72
2024/01/05 02:18:23;;;;;;;19.75;4.38;;;;;;;5.44;100.00;99588.91;5088763;28;20084;-72
2024/01/05 02:20:49;;;;;;;24.88;5.40;;;;;;;5.47;100.00;99586.84;5067976;28;20040;-72
2024/01/05 02:23:26;;;;;;;19.80;3.83;;;;;;;5.44;100.00;99591.47;5062034;28;20040;-72
2024/01/05 02:25:54;;;;;;;22.42;3.80;;;;;;;5.50;100.00;99590.91;5079422;28;20058;-71
2024/01/05 02:28:20;;;;;;;22.25;3.53;;;;;;;5.53;100.00;99593.13;5060337;28;20074;-72
2024/01/05 02:30:46;;;;;;;24.65;4.45;;;;;;;5.51;100.00;99589.91;5062009;28;20031;-71
2024/01/05 02:33:11;;;;;;;20.80;3.88;;;;;;;5.44;100.00;99576.06;5043426;28;20044;-71
2024/01/05 02:35:37;;;;;;;21.10;4.15;;;;;;;5.58;100.00;99583.22;5050657;28;20043;-72
2024/01/05 02:38:02;;;;;;;28.15;3.10;;;;;;;5.41;100.00;99579.75;5077633;28;20027;-72
2024/01/05 02:40:28;;;;;;;24.88;2.88;;;;;;;5.42;100.00;99583.13;5058037;28;20056;-72
2024/01/05 02:42:53;;;;;;;18.88;3.47;;;;;;;5.35;100.00;99585.50;5064735;28;20028;-72
2024/01/05 02:45:20;;;;;;;29.52;3.20;;;;;;;5.46;100.00;99587.81;5076044;28;20032;-72
2024/01/05 02:47:50;;;;;;;20.40;3.22;;;;;;;5.45;100.00;99575.91;5047645;28;20123;-72
2024/01/05 02:50:16;;;;;;;16.60;3.63;;;;;;;5.43;100.00;99577.81;5077768;28;20029;-72
2024/01/05 02:52:41;;;;;;;18.23;3.22;;;;;;;5.51;100.00;99573.69;5060540;28;20038;-73
2024/01/05 02:55:09;;;;;;;17.85;3.13;;;;;;;5.44;100.00;99579.44;5077524;28;20037;-72
2024/01/05 02:57:35;;;;;;;15.90;2.67;;;;;;;5.49;100.00;99570.47;5061746;28;20516;-73
2024/01/05 03:00:02;;;;;;;17.10;3.28;;;;;;;5.44;100.00;99564.03;5058564;28;20028;-72
2024/01/05 03:02:28;;;;;;;18.05;3.60;;;;;;;5.41;100.00;99564.31;5057831;28;20044;-72
2024/01/05 03:04:53;;;;;;;22.30;3.80;;;;;;;5.42;100.00;99571.06;5075661;28;20032;-72
2024/01/05 03:07:18;;;;;;;18.23;3.53;;;;;;;5.34;100.00;99565.09;5066759;28;20031;-72
2024/01/05 03:09:44;;;;;;;14.73;2.80;;;;;;;5.31;100.00;99552.53;5079116;28;20093;-71
2024/01/05 03:12:09;;;;;;;12.52;2.40;;;;;;;5.34;100.00;99562.50;5049270;28;20036;-72
2024/01/05 03:14:35;;;;;;;14.80;2.70;;;;;;;5.26;100.00;99555.56;5063703;28;20044;-72
2024/01/05 03:17:02;;;;;;;19.42;2.85;;;;;;;5.45;100.00;99554.53;5081280;28;20054;-71
2024/01/05 03:19:27;;;;;;;16.48;3.42;;;;;;;5.46;100.00;99553.56;5081637;28;20471;-73
2024/01/05 03:21:53;;;;;;;14.98;2.95;;;;;;;5.42;100.00;99547.13;5083618;28;20032;-72
2024/01/05 03:24:18;;;;;;;11.10;3.10;;;;;;;5.36;100.00;99540.03;5077295;28;20052;-72
2024/01/05 03:26:44;;;;;;;22.75;3.03;;;;;;;5.26;100.00;99535.00;5072247;28;20097;-72
2024/01/05 03:29:09;;;;;;;13.93;3.17;;;;;;;5.20;100.00;99535.63;5048737;28;20031;-72
2024/01/05 03:31:35;;;;;;;14.55;2.95;;;;;;;5.25;100.00;99529.06;5068746;28;20074;-72
2024/01/05 03:34:00;;;;;;;18.65;2.90;;;;;;;5.33;100.00;99536.00;5084479;28;20036;-72
2024/01/05 03:36:26;;;;;;;23.23;4.10;;;;;;;5.33;100.00;99542.88;5052709;28;20023;-72
2024/01/05 03:38:51;;;;;;;25.40;5.00;;;;;;;5.39;100.00;99537.97;5070759;28;20394;-72
2024/01/05 03:41:17;;;;;;;20.63;2.88;;;;;;;5.44;100.00;99530.59;5087795;28;20040;-72
2024/01/05 03:43:42;;;;;;;15.05;2.80;;;;;;;5.49;100.00;99526.75;5083445;28;20093;-73
2024/01/05 03:46:12;;;;;;;20.48;3.35;;;;;;;5.53;100.00;99531.41;5070729;28;20100;-72
2024/01/05 03:48:38;;;;;;;18.77;3.33;;;;;;;5.55;100.00;99532.06;5090317;28;20040;-71
2024/01/05 03:51:04;;;;;;;16.52;3.45;;;;;;;5.49;100.00;99526.75;5074126;28;20411;-72
2024/01/05 03:53:30;;;;;;;25.58;4.70;;;;;;;5.46;100.00;99525.28;5048376;28;20032;-72
2024/01/05 03:55:59;;;;;;;17.65;3.75;;;;;;;5.52;100.00;99521.28;5065559;28;20139;-72
2024/01/05 03:58:24;;;;;;;21.67;2.95;;;;;;;5.56;100.00;99522.63;5066913;28;20071;-73
2024/01/05 04:00:50;;;;;;;22.27;3.78;;;;;;;5.60;100.00;99514.41;5088514;28;20056;-71
2024/01/05 04:03:17;;;;;;;19.85;4.05;;;;;;;5.54;100.00;99506.50;5069918;28;20493;-72
2024/01/05 04:05:43;;;;;;;21.95;3.28;;;;;;;5.62;100.00;99509.94;5067053;28;20032;-72
2024/01/05 04:08:08;;;;;;;24.63;3.45;;;;;;;5.61;100.00;99508.34;5073189;28;20028;-71
2024/01/05 04:10:34;;;;;;;23.40;4.90;;;;;;;5.67;100.00;99504.34;5055625;28;20032;-72
2024/01/05 04:13:00;;;;;;;16.88;3.70;;;;;;;5.63;100.00;99497.88;5045119;28;20036;-72
2024/01/05 04:15:26;;;;;;;23.63;4.20;;;;;;;5.64;100.00;99504.63;5059775;28;20028;-72
2024/01/05 04:17:51;;;;;;;19.00;3.47;;;;;;;5.77;100.00;99492.13;5069885;28;20653;-72
2024/01/05 04:20:17;;;;;;;20.92;3.30;;;;;;;5.78;100.00;99478.31;5076326;28;20035;-72
2024/01/05 04:22:42;;;;;;;18.13;3.55;;;;;;;5.68;100.00;99474.28;5086291;28;20032;-71
2024/01/05 04:25:08;;;;;;;18.48;3.25;;;;;;;5.71;100.00;99471.38;5083285;28;20031;-72
2024/01/05 04:27:33;;;;;;;19.25;2.95;;;;;;;5.76;100.00;99471.72;5067162;28;20468;-72
2024/01/05 04:29:58;;;;;;;15.05;2.58;;;;;;;5.75;100.00;99472.69;5064817;28;20033;-72
2024/01/05 04:32:24;;;;;;;20.63;3.05;;;;;;;5.77;100.00;99461.25;5067187;28;20041;-72
2024/01/05 04:34:49;;;;;;;20.55;2.88;;;;;;;5.90;100.00;99455.66;5082243;28;20040;-73
2024/01/05 04:37:15;;;;;;;12.23;3.20;;;;;;;5.86;100.00;99454.38;5079537;28;20024;-72
2024/01/05 04:39:43;;;;;;;13.90;2.47;;;;;;;5.91;100.00;99451.31;5060842;28;20047;-73
2024/01/05 04:42:10;;;;;;;15.73;3.28;;;;;;;5.89;100.00;99448.91;5070864;28;20032;-72
2024/01/05 04:44:35;;;;;;;15.40;2.33;;;;;;;5.89;100.00;99445.53;5048962;28;20032;-72
2024/01/05 04:47:01;;;;;;;13.25;3.50;;;;;;;5.90;100.00;99447.16;5083842;28;20031;-72
2024/01/05 04:49:26;;;;;;;12.23;3.10;;;;;;;5.85;100.00;99442.47;5079802;28;20032;-72
2024/01/05 04:51:52;;;;;;;19.05;3.17;;;;;;;5.80;100.00;99432.66;5066878;28;20061;-72
2024/01/05 04:54:17;;;;;;;15.02;3.20;;;;;;;5.84;100.00;99439.09;5081070;28;20024;-72
2024/01/05 04:56:43;;;;;;;14.48;2.58;;;;;;;5.90;100.00;99436.88;5067450;28;20032;-72
2024/01/05 04:59:08;;;;;;;11.80;2.42;;;;;;;5.90;100.00;99427.38;5063132;28;20634;-73
2024/01/05 05:01:33;;;;;;;15.18;2.05;;;;;;;5.90;100.00;99424.78;5064482;28;20501;-73
2024/01/05 05:03:59;;;;;;;14.15;2.70;;;;;;;5.87;100.00;99417.38;5085793;28;20067;-72
2024/01/05 05:06:24;;;;;;;12.20;2.67;;;;;;;5.80;100.00;99409.50;5081449;28;20036;-72
2024/01/05 05:08:50;;;;;;;19.98;3.67;;;;;;;5.76;100.00;99402.25;5067261;28;20129;-74
2024/01/05 05:11:15;;;;;;;15.23;2.08;;;;;;;5.79;100.00;99389.88;5079405;28;20044;-72
2024/01/05 05:13:41;;;;;;;16.23;1.98;;;;;;;5.73;100.00;99397.44;5062103;28;20044;-73
2024/01/05 05:16:06;;;;;;;32.00;3.88;;;;;;;5.77;100.00;99385.88;5078812;28;20040;-72
2024/01/05 05:18:32;;;;;;;11.70;2.35;;;;;;;5.79;100.00;99392.47;5066309;28;20039;-72
2024/01/05 05:20:57;;;;;;;9.50;2.22;;;;;;;5.72;100.00;99386.34;5081364;28;20479;-72
2024/01/05 05:23:23;;;;;;;14.05;2.72;;;;;;;5.67;100.00;99391.16;5062828;28;20032;-72
2024/01/05 05:25:48;;;;;;;24.17;2.30;;;;;;;5.76;100.00;99385.03;5066427;28;20036;-72
2024/01/05 05:28:13;;;;;;;11.45;2.20;;;;;;;5.63;100.00;99388.09;5065321;28;20048;-72
2024/01/05 05:30:39;;;;;;;13.57;2.95;;;;;;;5.61;100.00;99381.50;5067998;28;20048;-72
2024/01/05 05:33:04;;;;;;;12.18;2.67;;;;;;;5.63;100.00;99387.28;5084234;28;20032;-72
2024/01/05 05:35:30;;;;;;;16.08;2.28;;;;;;;5.60;100.00;99374.75;5087960;28;20043;-72
2024/01/05 05:37:55;;;;;;;14.18;2.17;;;;;;;5.66;100.00;99382.63;5083280;28;20561;-72
2024/01/05 05:40:21;;;;;;;15.02;2.97;;;;;;;5.72;100.00;99367.53;5066883;28;20036;-73
2024/01/05 05:42:47;;;;;;;5.90;1.70;;;;;;;5.65;100.00;99381.03;5066829;28;20581;-72
2024/01/05 05:45:13;;;;;;;9.27;1.45;;;;;;;5.70;100.00;99366.88;5068585;28;20032;-72
2024/01/05 05:47:38;;;;;;;6.90;1.52;;;;;;;5.60;100.00;99367.84;5060322;28;20028;-71
2024/01/05 05:50:07;;;;;;;6.18;1.52;;;;;;;5.68;100.00;99369.63;5065772;28;20035;-73
2024/01/05 05:52:34;;;;;;;5.05;1.38;;;;;;;5.81;100.00;99369.16;5080897;28;20078;-71
2024/01/05 05:55:00;;;;;;;7.90;1.73;;;;;;;5.74;100.00;99373.31;5062100;28;20514;-72
2024/01/05 05:57:26;;;;;;;11.80;2.00;;;;;;;5.81;100.00;99369.94;5056815;28;20028;-72
2024/01/05 05:59:51;;;;;;;7.38;2.10;;;;;;;5.78;100.00;99374.59;5068269;28;20087;-73
2024/01/05 06:02:17;;;;;;;7.90;1.48;;;;;;;5.80;100.00;99370.09;5049008;28;20055;-72
2024/01/05 06:04:42;;;;;;;7.88;1.75;;;;;;;5.85;100.00;99355.00;5049021;28;20044;-72
2024/01/05 06:07:07;;;;;;;8.13;1.85;;;;;;;5.81;100.00;99362.22;5055142;28;20028;-72
2024/01/05 06:09:33;;;;;;;9.45;1.80;;;;;;;5.85;100.00;99362.72;5086733;28;20044;-72
2024/01/05 06:11:58;;;;;;;10.13;2.08;;;;;;;5.80;100.00;99362.38;5088597;28;20032;-72
2024/01/05 06:14:24;;;;;;;15.75;2.00;;;;;;;5.78;100.00;99367.72;5069817;28;20032;-72
2024/01/05 06:16:49;;;;;;;10.32;2.03;;;;;;;5.72;100.00;99375.25;5088599;28;20032;-72
2024/01/05 06:19:16;;;;;;;6.70;1.50;;;;;;;5.75;100.00;99372.38;5068950;28;20036;-72
2024/01/05 06:21:41;;;;;;;5.85;1.10;;;;;;;5.88;100.00;99371.88;5068616;28;20129;-71
2024/01/05 06:24:07;;;;;;;6.05;1.35;;;;;;;5.93;100.00;99378.16;5061345;28;20028;-72
2024/01/05 06:26:32;;;;;;;8.70;1.88;;;;;;;6.02;100.00;99373.84;5082468;28;20078;-72
2024/01/05 06:28:58;;;;;;;11.43;1.45;;;;;;;6.01;100.00;99380.78;5083124;28;20511;-73
2024/01/05 06:31:24;;;;;;;7.95;1.10;;;;;;;6.11;100.00;99375.47;5054271;28;20032;-72
2024/01/05 06:33:49;;;;;;;8.45;1.48;;;;;;;6.24;100.00;99364.66;5082067;28;20036;-72
2024/01/05 06:36:15;;;;;;;5.63;1.20;;;;;;;6.27;100.00;99374.63;5058583;28;20032;-72
2024/01/05 06:38:40;;;;;;;11.00;1.55;;;;;;;6.07;100.00;99381.91;5059077;28;20028;-72
2024/01/05 06:41:06;;;;;;;4.43;0.90;;;;;;;6.14;100.00;99382.88;5082411;28;20028;-72
2024/01/05 06:43:31;;;;;;;7.60;1.00;;;;;;;6.20;100.00;99381.41;5045887;28;20040;-72
2024/01/05 06:45:56;;;;;;;5.25;1.02;;;;;;;6.23;100.00;99388.78;5066832;28;20086;-72
2024/01/05 06:48:22;;;;;;;6.60;1.05;;;;;;;6.34;100.00;99385.09;5060264;28;20039;-73
2024/01/05 06:50:47;;;;;;;6.55;1.00;;;;;;;6.47;100.00;99382.81;5066253;28;20043;-73
2024/01/05 06:53:13;;;;;;;3.95;1.02;;;;;;;6.52;100.00;99379.78;5068816;28;20044;-72
2024/01/05 06:55:38;;;;;;;4.07;0.98;;;;;;;6.49;100.00;99391.19;5083038;28;20036;-72
2024/01/05 06:58:04;;;;;;;5.05;0.98;;;;;;;6.62;100.00;99391.47;5089128;28;20081;-71
2024/01/05 07:00:30;;;;;;;3.97;0.82;;;;;;;6.49;100.00;99391.19;5082120;28;20028;-72
2024/01/05 07:02:55;;;;;;;5.07;0.82;;;;;;;6.57;100.00;99398.09;5067775;28;20143;-72
2024/01/05 07:05:21;;;;;;;6.15;0.82;;;;;;;6.66;100.00;99406.63;5068813;28;20038;-72
2024/01/05 07:07:46;;;;;;;10.82;1.23;;;;;;;6.62;100.00;99403.56;5070039;28;20036;-72
2024/01/05 07:10:12;;;;;;;5.38;1.00;;;;;;;6.57;100.00;99405.81;5087805;28;20498;-72
2024/01/05 07:12:38;;;;;;;7.57;1.35;;;;;;;6.59;100.00;99412.44;5067058;28;20497;-73
2024/01/05 07:15:05;;;;;;;5.68;1.38;;;;;;;6.67;100.00;99409.03;5072016;28;20104;-73
2024/01/05 07:17:31;;;;;;;20.23;2.78;;;;;;;6.62;100.00;99413.88;5033177;28;1099342;-71
2024/01/05 07:19:56;;;;;;;9.77;1.30;;;;;;;6.61;100.00;99410.50;5069898;28;20664;-72
2024/01/05 07:22:22;;;;;;;5.90;0.93;;;;;;;6.58;100.00;99417.75;5066242;28;20027;-72
2024/01/05 07:24:48;;;;;;;7.82;0.77;;;;;;;6.53;100.00;99417.41;5051079;28;20044;-72
2024/01/05 07:27:16;;;;;;;3.88;0.80;;;;;;;6.42;100.00;99416.78;5081723;28;20024;-72
2024/01/05 07:29:41;;;;;;;5.45;1.33;;;;;;;6.48;100.00;99412.78;5066470;28;20032;-73
2024/01/05 07:32:07;;;;;;;3.85;0.90;;;;;;;6.34;100.00;99414.22;5068568;28;20036;-72
2024/01/05 07:34:33;;;;;;;3.38;0.90;;;;;;;6.32;100.00;99412.78;5067055;28;20033;-72
2024/01/05 07:36:58;;;;;;;6.13;0.70;;;;;;;6.51;100.00;99427.09;5060213;28;20423;-72
2024/01/05 07:39:24;;;;;;;12.50;3.60;;;;;;;6.59;100.00;99417.59;5048049;28;20352;-72
2024/01/05 07:41:50;;;;;;;2.78;0.77;;;;;;;6.62;100.00;99411.28;5084308;28;20064;-72
2024/01/05 07:44:15;;;;;;;4.55;0.80;;;;;;;6.75;100.00;99414.16;5064294;28;20043;-72
2024/01/05 07:46:42;;;;;;;4.00;0.60;;;;;;;6.67;100.00;99409.03;5082217;28;20059;-72
2024/01/05 07:49:08;;;;;;;2.83;0.73;;;;;;;6.69;100.00;99409.66;5047586;28;20036;-72
2024/01/05 07:51:33;;;;;;;6.75;0.90;;;;;;;6.72;100.00;99423.97;5082089;28;20036;-72
2024/01/05 07:53:59;;;;;;;2.45;0.70;;;;;;;6.71;100.00;99412.88;5066034;28;20045;-72
2024/01/05 07:56:24;;;;;;;3.60;1.20;;;;;;;6.76;100.00;99425.25;5067268;28;20039;-71
2024/01/05 07:58:49;;;;;;;5.82;0.88;;;;;;;6.81;100.00;99421.22;5084694;28;20041;-72
2024/01/05 08:01:17;;;;;;;4.88;1.10;;;;;;;6.77;100.00;99419.16;5057651;28;20016;-72
2024/01/05 08:03:44;;;;;;;3.75;0.88;;;;;;;6.65;100.00;99417.88;5075576;28;20055;-72
2024/01/05 08:06:17;;;;;;;2.58;0.90;;;;;;;6.68;100.00;99418.34;5049459;28;20070;-73
2024/01/05 08:08:47;;;;;;;7.32;1.00;;;;;;;6.70;100.00;99413.03;5062428;28;20078;-72
2024/01/05 08:11:13;;;;;;;7.90;3.00;;;;;;;6.71;100.00;99412.09;5081451;28;20028;-72
2024/01/05 08:13:42;;;;;;;3.08;1.10;;;;;;;6.82;100.00;99419.47;5066129;28;20036;-72
2024/01/05 08:16:07;;;;;;;3.63;0.82;;;;;;;6.83;100.00;99408.19;5064899;28;20028;-73
2024/01/05 08:18:33;;;;;;;3.20;0.95;;;;;;;7.00;98.17;99414.88;5079802;28;20047;-72
2024/01/05 08:21:00;;;;;;;6.07;1.98;;;;;;;6.91;97.86;99415.06;5058947;28;20032;-73
2024/01/05 08:23:25;;;;;;;4.28;1.10;;;;;;;6.90;97.73;99418.63;5051745;28;20120;-72
2024/01/05 08:25:51;;;;;;;3.33;0.93;;;;;;;6.99;95.88;99423.59;5086074;28;20032;-72
2024/01/05 08:28:16;;;;;;;3.10;0.85;;;;;;;7.06;93.50;99423.72;5065691;28;20040;-73
2024/01/05 08:30:42;;;;;;;4.60;1.00;;;;;;;7.06;93.38;99423.72;5056798;28;20024;-72
2024/01/05 08:33:07;;;;;;;3.08;0.68;;;;;;;7.08;93.61;99424.34;5061935;28;20062;-72
2024/01/05 08:35:34;;;;;;;5.20;1.45;;;;;;;7.00;93.60;99427.78;5063403;28;20036;-71
2024/01/05 08:38:00;;;;;;;2.05;0.50;;;;;;;6.95;93.95;99427.47;5081755;28;20110;-72
2024/01/05 08:40:28;;;;;;;2.22;0.50;;;;;;;6.96;93.59;99436.00;5061476;28;20071;-73
2024/01/05 08:42:54;;;;;;;2.28;0.50;;;;;;;6.92;92.46;99427.81;5063138;28;20068;-72
2024/01/05 08:45:20;;;;;;;1.15;0.30;;;;;;;6.91;91.77;99425.38;5055832;28;21055;-72
2024/01/05 08:47:46;;;;;;;0.93;0.40;;;;;;;7.02;90.81;99419.88;5065095;28;20159;-72
2024/01/05 08:50:12;;;;;;;1.45;0.80;;;;;;;6.87;92.67;99431.84;5068328;28;20557;-73
2024/01/05 08:52:37;;;;;;;0.98;0.40;;;;;;;6.89;92.25;99433.28;5067428;28;20036;-72
2024/01/05 08:55:03;;;;;;;1.23;0.30;;;;;;;6.89;91.80;99427.31;5050946;28;20123;-72
2024/01/05 08:57:29;;;;;;;0.43;0.30;;;;;;;6.94;91.35;99425.84;5065535;28;20111;-73
2024/01/05 08:59:55;;;;;;;2.03;0.32;;;;;;;6.94;89.64;99428.44;5061380;28;20044;-73
2024/01/05 09:02:20;;;;;;;1.50;0.30;;;;;;;6.93;89.12;99433.75;5077369;28;20032;-72
2024/01/05 09:04:46;;;;;;;1.45;0.30;;;;;;;6.86;89.66;99431.06;5081344;28;20063;-72
2024/01/05 09:07:12;;;;;;;0.70;0.30;;;;;;;6.94;89.99;99428.44;5066874;28;20036;-72
2024/01/05 09:09:38;;;;;;;1.77;0.40;;;;;;;7.04;90.12;99425.66;5056977;28;20028;-72
2024/01/05 09:12:03;;;;;;;2.70;0.47;;;;;;;6.97;87.33;99437.63;5081673;28;20062;-74
2024/01/05 09:14:29;;;;;;;5.05;0.43;;;;;;;6.94;88.66;99431.00;5078271;28;20028;-73
2024/01/05 09:16:54;;;;;;;7.85;3.83;;;;;;;6.93;91.03;99444.06;5061308;28;20489;-72
2024/01/05 09:19:20;;;;;;;1.30;0.25;;;;;;;6.94;88.30;99445.69;5060695;28;20041;-72
2024/01/05 09:21:45;;;;;;;1.95;0.32;;;;;;;6.87;88.78;99449.88;5066441;28;20082;-72
2024/01/05 09:24:11;;;;;;;0.98;0.40;;;;;;;6.94;88.37;99456.78;5058853;28;20040;-73
2024/01/05 09:26:36;;;;;;;1.65;0.40;;;;;;;7.04;87.90;99450.66;5065250;28;20421;-72
2024/01/05 09:29:04;;;;;;;1.13;0.40;;;;;;;6.95;88.33;99450.69;5078955;28;20095;-72
2024/01/05 09:31:30;;;;;;;1.00;0.57;;;;;;;7.00;88.10;99450.16;5066474;28;20103;-72
2024/01/05 09:33:56;;;;;;;0.50;0.30;;;;;;;6.97;89.13;99465.97;5058128;28;20029;-72
2024/01/05 09:36:22;;;;;;;2.33;0.93;;;;;;;7.04;88.35;99458.38;5086756;28;20514;-73
2024/01/05 09:38:49;;;;;;;0.90;0.30;;;;;;;6.93;88.02;99455.19;5054505;28;20441;-72
2024/01/05 09:41:14;;;;;;;0.85;0.40;;;;;;;7.08;86.49;99477.69;5080329;28;20043;-73
2024/01/05 09:43:51;;;;;;;0.80;0.30;;;;;;;7.07;86.22;99471.75;5060753;28;20056;-74
2024/01/05 09:46:17;;;;;;;4.43;0.65;;;;;;;7.07;86.71;99466.59;5078793;28;20036;-72
2024/01/05 09:48:42;;;;;;;3.15;0.47;;;;;;;6.99;88.21;99464.84;5053581;28;20040;-72
2024/01/05 09:51:08;;;;;;;1.10;0.50;;;;;;;7.14;86.99;99475.28;5073418;28;20109;-74
2024/01/05 09:53:34;;;;;;;1.83;0.60;;;;;;;7.21;85.68;99459.94;5057315;28;20098;-72
2024/01/05 09:56:02;;;;;;;1.23;0.40;;;;;;;7.15;86.63;99458.81;5077149;28;20032;-72
2024/01/05 09:58:28;;;;;;;3.13;0.60;;;;;;;7.09;85.53;99459.50;5078970;28;20141;-73
2024/01/05 10:00:57;;;;;;;1.48;0.40;;;;;;;7.08;86.51;99457.06;5080129;28;20059;-73
2024/01/05 10:03:26;;;;;;;1.00;0.30;;;;;;;7.11;86.28;99467.84;5080738;28;20036;-73
2024/01/05 10:05:56;;;;;;;2.78;0.50;;;;;;;7.14;85.82;99464.97;5061037;28;20354;-72
2024/01/05 10:08:22;;;;;;;2.00;0.32;;;;;;;7.12;86.04;99455.75;5081283;28;22293;-72
2024/01/05 10:10:52;;;;;;;1.38;0.30;;;;;;;7.14;85.43;99464.13;5069258;28;20028;-72
2024/01/05 10:13:18;;;;;;;1.17;0.28;;;;;;;7.06;86.66;99472.69;5078552;28;20040;-72
2024/01/05 10:16:00;;;;;;;3.80;0.73;;;;;;;7.14;87.50;99469.28;5064197;28;20040;-73
2024/01/05 10:18:29;;;;;;;4.95;0.68;;;;;;;7.07;88.17;99474.31;5067967;28;20172;-72
2024/01/05 10:20:57;;;;;;;2.42;0.50;;;;;;;6.97;88.08;99477.09;5085254;28;20028;-71
2024/01/05 10:23:23;;;;;;;2.15;0.57;;;;;;;7.14;87.33;99471.88;5083195;28;20049;-73
2024/01/05 10:25:51;;;;;;;0.75;0.30;;;;;;;7.09;88.80;99466.44;5081559;28;20833;-72
2024/01/05 10:28:31;;;;;;;4.55;0.60;;;;;;;7.14;87.50;99475.28;5078822;28;20075;-72
2024/01/05 10:31:16;;;;;;;4.45;0.90;;;;;;;7.19;86.91;99472.97;5078103;28;21661;-73
2024/01/05 10:33:52;;;;;;;1.65;0.80;;;;;;;7.17;87.35;99469.75;5065893;28;20699;-73
2024/01/05 10:36:19;;;;;;;3.50;0.80;;;;;;;7.18;86.96;99470.59;5066454;28;20045;-72
2024/01/05 10:38:46;;;;;;;4.22;0.90;;;;;;;7.30;87.47;99471.03;5059580;28;20118;-72
2024/01/05 10:41:11;;;;;;;1.90;0.47;;;;;;;7.37;85.75;99467.63;5065876;28;20028;-72
2024/01/05 10:43:37;;;;;;;2.83;0.55;;;;;;;7.24;87.27;99474.28;5078778;28;20038;-72
2024/01/05 10:46:04;;;;;;;3.83;0.65;;;;;;;7.23;86.71;99473.44;5086619;28;20039;-73
2024/01/05 10:48:32;;;;;;;5.45;0.77;;;;;;;7.19;87.27;99467.81;5080479;28;20056;-72
2024/01/05 10:50:58;;;;;;;3.70;0.80;;;;;;;7.29;85.27;99459.91;5065980;28;20032;-72
2024/01/05 10:53:25;;;;;;;6.30;0.60;;;;;;;7.21;85.98;99473.66;5062402;28;20032;-72
2024/01/05 10:55:50;;;;;;;2.65;0.60;;;;;;;7.17;86.92;99469.75;5063066;28;20127;-73
2024/01/05 10:58:16;;;;;;;6.15;0.75;;;;;;;7.24;86.41;99467.34;5077289;28;20111;-72
2024/01/05 11:00:41;;;;;;;2.85;0.40;;;;;;;7.29;85.53;99475.38;5070275;28;20035;-72
2024/01/05 11:03:12;;;;;;;1.92;0.30;;;;;;;7.22;85.46;99474.44;5075827;28;20029;-72
2024/01/05 11:05:40;;;;;;;4.30;0.88;;;;;;;7.18;87.64;99471.38;5063356;28;20116;-72
2024/01/05 11:08:29;;;;;;;3.60;0.75;;;;;;;7.22;86.34;99477.03;5083254;28;20025;-72
2024/01/05 11:11:03;;;;;;;3.40;0.70;;;;;;;7.21;86.48;99468.50;5049835;28;20028;-72
2024/01/05 11:13:56;;;;;;;2.50;0.65;;;;;;;7.27;86.26;99471.34;5085519;28;20119;-73
2024/01/05 11:16:24;;;;;;;4.13;0.95;;;;;;;7.27;87.69;99474.75;5061302;28;20047;-74
2024/01/05 11:19:16;;;;;;;5.63;0.90;;;;;;;7.31;87.82;99467.47;5067779;28;20055;-73
2024/01/05 11:21:55;;;;;;;7.43;2.33;;;;;;;7.27;88.96;99468.78;5064878;28;20100;-72
2024/01/05 11:24:22;;;;;;;6.40;1.65;;;;;;;7.31;90.21;99478.59;5060986;28;20032;-73
2024/01/05 11:26:48;;;;;;;3.85;0.80;;;;;;;7.26;90.44;99472.34;5072268;28;20028;-73
2024/01/05 11:29:45;;;;;;;1.77;0.80;;;;;;;7.20;90.68;99473.81;5063591;28;20560;-73